Time;durP1;ratioP1;P1;durP2;ratioP2;P2;SDS_P1;SDS_P2;PMS_P1;PMS_P2;Temp;Humidity;BMP_temperature;BMP_pressure;BME280_temperature;BME280_humidity;BME280_pressure;Samples;Min_cycle;Max_cycle;Signal;HPM_P1;HPM_P2
2021/09/09 00:01:00;;;;;;;8.60;6.78;;;;;;;;;;6154277;28;20170;-69
2021/09/09 00:04:03;;;;;;;12.60;6.60;;;;;;;;;;6153606;28;20141;-69
2021/09/09 00:07:05;;;;;;;12.27;7.05;;;;;;;;;;6149770;28;20185;-68
2021/09/09 00:10:07;;;;;;;14.43;7.90;;;;;;;;;;6164096;28;20043;-69
2021/09/09 00:13:09;;;;;;;11.90;6.75;;;;;;;;;;6158885;28;20090;-69
2021/09/09 00:16:11;;;;;;;9.75;6.45;;;;;;;;;;6153837;28;20043;-68
2021/09/09 00:19:14;;;;;;;11.50;6.60;;;;;;;;;;6161091;28;20047;-68
2021/09/09 00:22:15;;;;;;;10.68;6.55;;;;;;;;;;6146083;28;20586;-68
2021/09/09 00:25:17;;;;;;;13.18;6.57;;;;;;;;;;6155736;28;20594;-69
2021/09/09 00:28:18;;;;;;;9.57;6.18;;;;;;;;;;6154758;28;20059;-68
2021/09/09 00:31:20;;;;;;;11.35;5.90;;;;;;;;;;6150112;28;20054;-69
2021/09/09 00:34:23;;;;;;;9.60;6.20;;;;;;;;;;6159621;28;20047;-69
2021/09/09 00:37:24;;;;;;;11.55;6.13;;;;;;;;;;6154886;28;20115;-71
2021/09/09 00:40:26;;;;;;;8.10;6.13;;;;;;;;;;6158550;28;20106;-71
2021/09/09 00:43:28;;;;;;;12.90;6.25;;;;;;;;;;6158497;28;20088;-70
2021/09/09 00:46:31;;;;;;;9.85;6.40;;;;;;;;;;6154358;28;20129;-70
2021/09/09 00:49:37;;;;;;;8.77;6.00;;;;;;;;;;6159103;28;20126;-70
2021/09/09 00:52:41;;;;;;;8.93;6.10;;;;;;;;;;6156737;28;20047;-70
2021/09/09 00:55:42;;;;;;;11.13;6.25;;;;;;;;;;6162276;28;20089;-70
2021/09/09 00:58:46;;;;;;;10.15;5.97;;;;;;;;;;6164555;28;20440;-69
2021/09/09 01:01:47;;;;;;;8.45;5.95;;;;;;;;;;6150367;28;20047;-69
2021/09/09 01:04:50;;;;;;;8.98;6.75;;;;;;;;;;6161057;28;20190;-68
2021/09/09 01:07:52;;;;;;;10.43;6.18;;;;;;;;;;6156306;28;20141;-68
2021/09/09 01:10:53;;;;;;;9.13;6.13;;;;;;;;;;6161493;28;20054;-69
2021/09/09 01:14:05;;;;;;;11.90;6.28;;;;;;;;;;6162754;28;20058;-69
2021/09/09 01:17:06;;;;;;;9.20;6.28;;;;;;;;;;6156150;28;20402;-69
2021/09/09 01:20:11;;;;;;;7.20;5.72;;;;;;;;;;6160449;28;20149;-69
2021/09/09 01:23:12;;;;;;;11.00;6.03;;;;;;;;;;6154527;28;20051;-68
2021/09/09 01:26:15;;;;;;;7.72;6.00;;;;;;;;;;6164625;28;20064;-68
2021/09/09 01:29:18;;;;;;;8.75;6.18;;;;;;;;;;6164663;28;20503;-68
2021/09/09 01:32:19;;;;;;;9.00;5.68;;;;;;;;;;6158558;28;20055;-67
2021/09/09 01:35:22;;;;;;;10.55;5.53;;;;;;;;;;6156327;28;20438;-67
2021/09/09 01:38:24;;;;;;;8.98;6.40;;;;;;;;;;6165405;28;20124;-69
2021/09/09 01:41:27;;;;;;;12.65;6.13;;;;;;;;;;6162338;28;20046;-69
2021/09/09 01:44:30;;;;;;;7.20;5.70;;;;;;;;;;6171583;28;20824;-69
2021/09/09 01:47:31;;;;;;;9.50;6.00;;;;;;;;;;6156003;28;20051;-69
2021/09/09 01:50:33;;;;;;;9.27;6.20;;;;;;;;;;6155609;28;20921;-69
2021/09/09 01:53:35;;;;;;;9.05;5.55;;;;;;;;;;6163813;28;20133;-68
2021/09/09 01:56:38;;;;;;;9.30;5.93;;;;;;;;;;6161541;28;20133;-68
2021/09/09 01:59:39;;;;;;;6.95;5.50;;;;;;;;;;6170560;28;20058;-68
2021/09/09 02:02:42;;;;;;;8.48;5.65;;;;;;;;;;6155479;28;20211;-68
2021/09/09 02:05:43;;;;;;;8.30;5.82;;;;;;;;;;6158339;28;20109;-69
2021/09/09 02:08:45;;;;;;;8.00;5.15;;;;;;;;;;6169516;28;20047;-68
2021/09/09 02:11:48;;;;;;;9.40;6.28;;;;;;;;;;6158341;28;20562;-68
2021/09/09 02:14:49;;;;;;;9.30;6.03;;;;;;;;;;6170312;28;20077;-69
2021/09/09 02:17:51;;;;;;;8.88;6.15;;;;;;;;;;6156424;28;20252;-69
2021/09/09 02:20:53;;;;;;;8.98;6.40;;;;;;;;;;6161310;28;20057;-68
2021/09/09 02:23:54;;;;;;;12.05;5.90;;;;;;;;;;6168663;28;20129;-68
2021/09/09 02:26:57;;;;;;;10.38;6.40;;;;;;;;;;6161593;28;20133;-68
2021/09/09 02:29:59;;;;;;;12.00;6.72;;;;;;;;;;6171434;28;20529;-67
2021/09/09 02:33:01;;;;;;;12.70;6.28;;;;;;;;;;6157591;28;20341;-67
2021/09/09 02:36:02;;;;;;;9.50;6.43;;;;;;;;;;6153074;28;20082;-67
2021/09/09 02:39:04;;;;;;;8.30;6.47;;;;;;;;;;6167109;28;20057;-67
2021/09/09 02:42:07;;;;;;;9.38;6.20;;;;;;;;;;6162059;28;20133;-68
2021/09/09 02:45:11;;;;;;;11.38;6.35;;;;;;;;;;6160584;28;20523;-69
2021/09/09 02:48:12;;;;;;;;;;;;;;;;;;6154423;28;20447;-69
2021/09/09 02:51:14;;;;;;;10.82;6.22;;;;;;;;;;6156639;28;19922;-69
2021/09/09 02:54:16;;;;;;;10.02;5.80;;;;;;;;;;6166006;28;20049;-70
2021/09/09 02:57:19;;;;;;;10.07;6.82;;;;;;;;;;6158750;28;20093;-67
2021/09/09 03:00:20;;;;;;;8.73;6.10;;;;;;;;;;6164672;28;20039;-68
2021/09/09 03:03:22;;;;;;;8.63;5.97;;;;;;;;;;6159139;28;20103;-68
2021/09/09 03:06:23;;;;;;;9.15;6.30;;;;;;;;;;6157405;28;20116;-67
2021/09/09 03:09:25;;;;;;;9.35;5.90;;;;;;;;;;6162591;28;20497;-68
2021/09/09 03:12:28;;;;;;;8.57;6.03;;;;;;;;;;6158831;28;20100;-68
2021/09/09 03:15:29;;;;;;;10.15;6.03;;;;;;;;;;6161981;28;20046;-68
2021/09/09 03:18:31;;;;;;;8.20;5.43;;;;;;;;;;6158666;28;20251;-68
2021/09/09 03:21:32;;;;;;;10.05;6.45;;;;;;;;;;6156254;28;20095;-68
2021/09/09 03:24:34;;;;;;;7.90;6.18;;;;;;;;;;6163673;28;20043;-68
2021/09/09 03:27:37;;;;;;;8.98;6.20;;;;;;;;;;6158164;28;20130;-68
2021/09/09 03:30:39;;;;;;;10.93;6.18;;;;;;;;;;6157957;28;20035;-68
2021/09/09 03:33:40;;;;;;;9.00;6.18;;;;;;;;;;6159359;28;20475;-68
2021/09/09 03:36:42;;;;;;;10.77;6.30;;;;;;;;;;6157994;28;20051;-67
2021/09/09 03:39:44;;;;;;;10.57;6.43;;;;;;;;;;6161194;28;20504;-67
2021/09/09 03:42:47;;;;;;;10.13;6.30;;;;;;;;;;6159455;28;20483;-68
2021/09/09 03:45:48;;;;;;;11.38;6.82;;;;;;;;;;6154831;28;20047;-68
2021/09/09 03:48:50;;;;;;;9.30;6.32;;;;;;;;;;6159925;28;21073;-69
2021/09/09 03:51:51;;;;;;;9.13;6.68;;;;;;;;;;6157782;28;20126;-69
2021/09/09 03:54:53;;;;;;;11.77;6.22;;;;;;;;;;6164635;28;20474;-69
2021/09/09 03:57:56;;;;;;;10.85;6.18;;;;;;;;;;6157541;28;20051;-69
2021/09/09 04:00:57;;;;;;;12.75;6.45;;;;;;;;;;6155089;28;20059;-68
2021/09/09 04:03:59;;;;;;;9.05;5.55;;;;;;;;;;6156395;28;20046;-68
2021/09/09 04:07:00;;;;;;;13.98;6.45;;;;;;;;;;6150401;28;20573;-68
2021/09/09 04:10:02;;;;;;;8.63;5.82;;;;;;;;;;6163710;28;20078;-69
2021/09/09 04:13:05;;;;;;;8.75;6.07;;;;;;;;;;6156445;28;20650;-68
2021/09/09 04:16:07;;;;;;;10.02;6.32;;;;;;;;;;6150618;28;20043;-70
2021/09/09 04:19:09;;;;;;;13.85;7.10;;;;;;;;;;6152629;28;20110;-68
2021/09/09 04:22:11;;;;;;;12.85;6.75;;;;;;;;;;6158299;28;20046;-68
2021/09/09 04:25:13;;;;;;;11.10;6.67;;;;;;;;;;6154749;28;20134;-67
2021/09/09 04:28:16;;;;;;;11.32;6.57;;;;;;;;;;6158342;28;20415;-67
2021/09/09 04:31:17;;;;;;;8.68;6.30;;;;;;;;;;6153482;28;20082;-67
2021/09/09 04:34:19;;;;;;;10.10;6.22;;;;;;;;;;6160586;28;20130;-68
2021/09/09 04:37:20;;;;;;;13.05;7.78;;;;;;;;;;6155371;28;20065;-68
2021/09/09 04:40:22;;;;;;;9.60;6.47;;;;;;;;;;6159921;28;20090;-67
2021/09/09 04:43:25;;;;;;;11.50;6.28;;;;;;;;;;6161776;28;20087;-66
2021/09/09 04:46:27;;;;;;;11.82;6.85;;;;;;;;;;6154484;28;20065;-66
2021/09/09 04:49:28;;;;;;;13.48;6.97;;;;;;;;;;6159886;28;21410;-66
2021/09/09 04:52:30;;;;;;;9.75;6.38;;;;;;;;;;6153761;28;20053;-66
2021/09/09 04:55:31;;;;;;;10.93;7.03;;;;;;;;;;6156289;28;20390;-67
2021/09/09 04:58:34;;;;;;;10.07;7.07;;;;;;;;;;6165589;28;20047;-66
2021/09/09 05:01:36;;;;;;;13.98;7.22;;;;;;;;;;6155217;28;20395;-65
2021/09/09 05:04:38;;;;;;;9.45;6.32;;;;;;;;;;6164901;28;20053;-67
2021/09/09 05:07:40;;;;;;;10.10;7.03;;;;;;;;;;6156703;28;20489;-66
2021/09/09 05:10:42;;;;;;;12.32;6.72;;;;;;;;;;6159887;28;20061;-67
2021/09/09 05:13:45;;;;;;;10.55;6.40;;;;;;;;;;6168474;28;20055;-67
2021/09/09 05:16:47;;;;;;;13.48;6.88;;;;;;;;;;6156929;28;20043;-68
2021/09/09 05:19:48;;;;;;;14.05;6.60;;;;;;;;;;6165177;28;20054;-68
2021/09/09 05:22:50;;;;;;;11.20;6.78;;;;;;;;;;6157712;28;20055;-68
2021/09/09 05:25:52;;;;;;;10.38;6.65;;;;;;;;;;6158755;28;20043;-67
2021/09/09 05:28:54;;;;;;;11.02;6.40;;;;;;;;;;6166385;28;20066;-65
2021/09/09 05:31:56;;;;;;;10.50;7.03;;;;;;;;;;6156734;28;20047;-65
2021/09/09 05:34:58;;;;;;;11.85;6.80;;;;;;;;;;6165783;28;20117;-66
2021/09/09 05:37:59;;;;;;;12.65;7.10;;;;;;;;;;6154760;28;20047;-66
2021/09/09 05:41:01;;;;;;;11.25;7.35;;;;;;;;;;6159005;28;20097;-67
2021/09/09 05:44:04;;;;;;;12.77;7.45;;;;;;;;;;6167990;28;20137;-65
2021/09/09 05:47:08;;;;;;;;;;;;;;;;;;6154368;28;20047;-65
2021/09/09 05:50:10;;;;;;;14.37;7.00;;;;;;;;;;6158508;28;19949;-66
2021/09/09 05:53:11;;;;;;;17.45;7.97;;;;;;;;;;6161804;28;20133;-66
2021/09/09 05:56:13;;;;;;;20.67;8.60;;;;;;;;;;6161243;28;20138;-65
2021/09/09 05:59:16;;;;;;;17.02;7.88;;;;;;;;;;6170918;28;20054;-65
2021/09/09 06:02:19;;;;;;;12.57;7.47;;;;;;;;;;6155566;28;20185;-66
2021/09/09 06:05:22;;;;;;;16.20;8.38;;;;;;;;;;6146462;28;20062;-68
2021/09/09 06:08:24;;;;;;;13.95;7.68;;;;;;;;;;6153294;28;20422;-67
2021/09/09 06:11:25;;;;;;;12.60;7.93;;;;;;;;;;6158188;28;20051;-67
2021/09/09 06:14:29;;;;;;;10.35;7.18;;;;;;;;;;6166832;28;20043;-67
2021/09/09 06:17:31;;;;;;;13.10;7.88;;;;;;;;;;6150811;28;20043;-66
2021/09/09 06:20:32;;;;;;;12.60;7.60;;;;;;;;;;6156714;28;20129;-66
2021/09/09 06:23:34;;;;;;;8.82;7.38;;;;;;;;;;6164720;28;20047;-65
2021/09/09 06:26:35;;;;;;;10.13;7.65;;;;;;;;;;6157266;28;20050;-65
2021/09/09 06:29:38;;;;;;;10.18;7.68;;;;;;;;;;6166430;28;20043;-67
2021/09/09 06:32:40;;;;;;;11.75;7.47;;;;;;;;;;6149896;28;20505;-66
2021/09/09 06:35:43;;;;;;;13.55;7.20;;;;;;;;;;6154272;28;20046;-66
2021/09/09 06:38:45;;;;;;;9.45;7.00;;;;;;;;;;6163184;28;20070;-67
2021/09/09 06:41:47;;;;;;;11.10;7.53;;;;;;;;;;6160358;28;20510;-67
2021/09/09 06:44:49;;;;;;;10.25;7.68;;;;;;;;;;6166646;28;20133;-66
2021/09/09 06:47:51;;;;;;;14.15;7.40;;;;;;;;;;6153323;28;20197;-67
2021/09/09 06:50:53;;;;;;;10.57;7.68;;;;;;;;;;6158997;28;20226;-66
2021/09/09 06:53:54;;;;;;;13.93;7.40;;;;;;;;;;6165653;28;20069;-68
2021/09/09 06:56:56;;;;;;;10.70;7.43;;;;;;;;;;6159266;28;20051;-67
2021/09/09 06:59:59;;;;;;;14.43;7.28;;;;;;;;;;6167404;28;20043;-67
2021/09/09 07:03:00;;;;;;;12.07;7.32;;;;;;;;;;6149023;28;20097;-67
2021/09/09 07:06:02;;;;;;;10.48;7.05;;;;;;;;;;6154731;28;20453;-67
2021/09/09 07:09:03;;;;;;;9.82;6.60;;;;;;;;;;6164015;28;20089;-67
2021/09/09 07:12:05;;;;;;;10.77;6.47;;;;;;;;;;6157068;28;20421;-67
2021/09/09 07:15:09;;;;;;;9.63;6.82;;;;;;;;;;6164218;28;20126;-68
2021/09/09 07:18:11;;;;;;;10.75;7.07;;;;;;;;;;6152373;28;21507;-67
2021/09/09 07:21:12;;;;;;;10.90;6.40;;;;;;;;;;6154618;28;20487;-68
2021/09/09 07:24:14;;;;;;;15.48;6.85;;;;;;;;;;6162989;28;20045;-67
2021/09/09 07:27:15;;;;;;;10.65;6.75;;;;;;;;;;6156537;28;20154;-68
2021/09/09 07:30:18;;;;;;;12.02;6.85;;;;;;;;;;6163343;28;20053;-68
2021/09/09 07:33:20;;;;;;;12.65;6.50;;;;;;;;;;6150911;28;20046;-68
2021/09/09 07:36:22;;;;;;;10.75;6.50;;;;;;;;;;6156839;28;20046;-67
2021/09/09 07:39:24;;;;;;;11.77;5.75;;;;;;;;;;6159459;28;20057;-67
2021/09/09 07:42:26;;;;;;;10.75;6.28;;;;;;;;;;6157503;28;20108;-67
2021/09/09 07:45:29;;;;;;;9.07;6.25;;;;;;;;;;6154795;28;20055;-67
2021/09/09 07:48:30;;;;;;;7.45;5.80;;;;;;;;;;6156746;28;20050;-67
2021/09/09 07:51:32;;;;;;;7.63;5.95;;;;;;;;;;6155097;28;20423;-67
2021/09/09 07:54:34;;;;;;;9.77;5.95;;;;;;;;;;6164500;28;20043;-67
2021/09/09 07:57:35;;;;;;;8.82;6.40;;;;;;;;;;6158795;28;20117;-67
2021/09/09 08:00:38;;;;;;;12.70;5.45;;;;;;;;;;6159220;28;20122;-67
2021/09/09 08:03:40;;;;;;;12.70;6.00;;;;;;;;;;6157331;28;20090;-67
2021/09/09 08:06:42;;;;;;;15.32;5.85;;;;;;;;;;6156618;28;20522;-68
2021/09/09 08:09:43;;;;;;;8.48;5.53;;;;;;;;;;6160538;28;21102;-66
2021/09/09 08:12:46;;;;;;;8.93;5.18;;;;;;;;;;6154629;28;20090;-67
2021/09/09 08:15:49;;;;;;;12.25;5.97;;;;;;;;;;6154525;28;20188;-67
2021/09/09 08:18:51;;;;;;;16.73;6.22;;;;;;;;;;6152969;28;20133;-67
2021/09/09 08:21:52;;;;;;;8.35;5.35;;;;;;;;;;6158022;28;20109;-67
2021/09/09 08:24:54;;;;;;;10.50;5.63;;;;;;;;;;6155011;28;20198;-67
2021/09/09 08:27:55;;;;;;;10.30;5.68;;;;;;;;;;6152389;28;20503;-66
2021/09/09 08:30:58;;;;;;;11.80;5.68;;;;;;;;;;6144295;28;20047;-67
2021/09/09 08:34:00;;;;;;;6.35;4.68;;;;;;;;;;6143898;28;20130;-68
2021/09/09 08:37:01;;;;;;;10.10;5.47;;;;;;;;;;6139036;28;20093;-67
2021/09/09 08:40:07;;;;;;;8.27;5.55;;;;;;;;;;6150506;28;20098;-67
2021/09/09 08:43:09;;;;;;;8.20;5.00;;;;;;;;;;6154061;28;20047;-67
2021/09/09 08:46:16;;;;;;;10.25;4.93;;;;;;;;;;6142330;28;20047;-68
2021/09/09 08:49:23;;;;;;;9.73;4.97;;;;;;;;;;6156695;28;20050;-67
2021/09/09 08:52:25;;;;;;;11.05;5.40;;;;;;;;;;6147247;28;20130;-68
2021/09/09 08:55:26;;;;;;;10.07;5.70;;;;;;;;;;6154853;28;20074;-68
2021/09/09 08:58:28;;;;;;;7.72;5.30;;;;;;;;;;6156104;28;20174;-67
2021/09/09 09:01:31;;;;;;;6.88;4.78;;;;;;;;;;6141192;28;20165;-67
2021/09/09 09:04:33;;;;;;;;;;;;;;;;;;6151709;28;20169;-68
2021/09/09 09:07:35;;;;;;;9.88;4.75;;;;;;;;;;6155452;28;19922;-67
2021/09/09 09:10:37;;;;;;;7.90;4.65;;;;;;;;;;6155533;28;20129;-67
2021/09/09 09:13:38;;;;;;;11.32;4.60;;;;;;;;;;6158777;28;20043;-68
2021/09/09 09:16:46;;;;;;;10.88;4.30;;;;;;;;;;6150317;28;20138;-67
2021/09/09 09:19:47;;;;;;;9.55;4.45;;;;;;;;;;6160438;28;20049;-68
2021/09/09 09:22:49;;;;;;;9.88;4.28;;;;;;;;;;6139649;28;20092;-68
2021/09/09 09:25:54;;;;;;;6.07;4.30;;;;;;;;;;6149552;28;20039;-67
2021/09/09 09:28:57;;;;;;;12.18;4.65;;;;;;;;;;6164554;28;20053;-68
2021/09/09 09:32:09;;;;;;;5.95;4.47;;;;;;;;;;6148036;28;20043;-67
2021/09/09 09:35:13;;;;;;;7.07;4.47;;;;;;;;;;6152474;28;20047;-69
2021/09/09 09:38:15;;;;;;;11.45;4.32;;;;;;;;;;6156680;28;20039;-68
2021/09/09 09:41:18;;;;;;;8.60;5.13;;;;;;;;;;6150930;28;20040;-68
2021/09/09 09:44:28;;;;;;;8.63;4.25;;;;;;;;;;6156283;28;20051;-69
2021/09/09 09:47:35;;;;;;;10.23;4.80;;;;;;;;;;6150084;28;20047;-68
2021/09/09 09:50:40;;;;;;;6.93;4.30;;;;;;;;;;6159283;28;20100;-67
2021/09/09 09:53:41;;;;;;;7.78;4.93;;;;;;;;;;6169172;28;20039;-69
2021/09/09 09:56:44;;;;;;;6.32;4.15;;;;;;;;;;6160350;28;20145;-69
2021/09/09 09:59:45;;;;;;;;;;;;;;;;;;6166133;28;20043;-69
2021/09/09 10:02:49;;;;;;;9.23;4.68;;;;;;;;;;6145235;28;19926;-69
2021/09/09 10:05:52;;;;;;;5.43;4.28;;;;;;;;;;6153743;28;20043;-68
2021/09/09 10:08:54;;;;;;;8.63;3.78;;;;;;;;;;6166956;28;20054;-69
2021/09/09 10:11:55;;;;;;;8.75;4.28;;;;;;;;;;6159999;28;20511;-69
2021/09/09 10:14:57;;;;;;;9.93;4.53;;;;;;;;;;6166139;28;20050;-69
2021/09/09 10:18:01;;;;;;;5.88;4.65;;;;;;;;;;6151286;28;20079;-69
2021/09/09 10:21:03;;;;;;;10.20;3.83;;;;;;;;;;6156499;28;20061;-69
2021/09/09 10:24:13;;;;;;;10.05;4.95;;;;;;;;;;6163061;28;20053;-69
2021/09/09 10:27:19;;;;;;;10.32;4.43;;;;;;;;;;6160610;28;20186;-70
2021/09/09 10:30:20;;;;;;;8.00;4.78;;;;;;;;;;6164181;28;20137;-70
2021/09/09 10:33:29;;;;;;;8.77;4.90;;;;;;;;;;6155010;28;20452;-70
2021/09/09 10:36:39;;;;;;;7.43;4.85;;;;;;;;;;6159465;28;20053;-68
2021/09/09 10:39:56;;;;;;;6.55;4.15;;;;;;;;;;6156283;28;20047;-69
2021/09/09 10:42:59;;;;;;;10.48;4.90;;;;;;;;;;6157140;28;20202;-68
2021/09/09 10:46:02;;;;;;;9.57;5.47;;;;;;;;;;6156032;28;20110;-68
2021/09/09 10:49:07;;;;;;;6.13;4.65;;;;;;;;;;6156821;28;20193;-69
2021/09/09 10:52:14;;;;;;;7.22;4.60;;;;;;;;;;6152006;28;20492;-69
2021/09/09 10:55:25;;;;;;;7.57;4.10;;;;;;;;;;6163645;28;20038;-69
2021/09/09 10:58:27;;;;;;;6.67;4.60;;;;;;;;;;6167364;28;20170;-68
2021/09/09 11:01:29;;;;;;;6.78;4.20;;;;;;;;;;6154115;28;20118;-68
2021/09/09 11:04:33;;;;;;;9.75;4.35;;;;;;;;;;6162885;28;20039;-69
2021/09/09 11:07:38;;;;;;;5.00;4.07;;;;;;;;;;6160976;28;20066;-68
2021/09/09 11:10:40;;;;;;;5.32;4.35;;;;;;;;;;6155024;28;20057;-69
2021/09/09 11:13:41;;;;;;;8.93;4.60;;;;;;;;;;6165185;28;20514;-69
2021/09/09 11:16:43;;;;;;;7.80;4.38;;;;;;;;;;6149983;28;20211;-69
2021/09/09 11:19:46;;;;;;;7.88;4.32;;;;;;;;;;6162722;28;20050;-68
2021/09/09 11:22:48;;;;;;;6.05;4.03;;;;;;;;;;6155371;28;20134;-70
2021/09/09 11:25:49;;;;;;;;;;;;;;;;;;6156324;28;20043;-69
2021/09/09 11:28:52;;;;;;;6.53;4.53;;;;;;;;;;6164167;28;20398;-69
2021/09/09 11:31:55;;;;;;;10.32;5.63;;;;;;;;;;6150606;28;20507;-70
2021/09/09 11:35:09;;;;;;;6.00;4.90;;;;;;;;;;6160710;28;20043;-70
2021/09/09 11:38:11;;;;;;;7.97;4.68;;;;;;;;;;6158257;28;20130;-69
2021/09/09 11:41:15;;;;;;;8.05;5.05;;;;;;;;;;6145942;28;20129;-69
2021/09/09 11:44:26;;;;;;;5.75;4.30;;;;;;;;;;6155024;28;20054;-70
2021/09/09 11:47:28;;;;;;;5.18;4.68;;;;;;;;;;6146585;28;20490;-71
2021/09/09 11:50:31;;;;;;;7.38;5.47;;;;;;;;;;6155615;28;20050;-71
2021/09/09 11:53:33;;;;;;;5.63;4.50;;;;;;;;;;6163622;28;20086;-69
2021/09/09 11:56:35;;;;;;;4.57;4.18;;;;;;;;;;6160484;28;20125;-69
2021/09/09 11:59:39;;;;;;;5.00;4.15;;;;;;;;;;6162997;28;20145;-69
2021/09/09 12:02:43;;;;;;;8.57;4.63;;;;;;;;;;6152186;28;20047;-68
2021/09/09 12:05:46;;;;;;;7.13;4.65;;;;;;;;;;6152606;28;20091;-68
2021/09/09 12:08:47;;;;;;;8.13;4.70;;;;;;;;;;6157122;28;20057;-68
2021/09/09 12:12:00;;;;;;;6.20;4.50;;;;;;;;;;6151722;28;20093;-69
2021/09/09 12:15:03;;;;;;;5.75;4.43;;;;;;;;;;6162065;28;20185;-68
2021/09/09 12:18:10;;;;;;;5.47;4.43;;;;;;;;;;6149709;28;20087;-68
2021/09/09 12:21:14;;;;;;;9.50;4.80;;;;;;;;;;6152766;28;20039;-69
2021/09/09 12:24:20;;;;;;;6.03;4.50;;;;;;;;;;6159397;28;20411;-69
2021/09/09 12:27:23;;;;;;;7.95;4.25;;;;;;;;;;6145324;28;20069;-68
2021/09/09 12:30:25;;;;;;;6.68;4.63;;;;;;;;;;6159539;28;20051;-70
2021/09/09 12:33:28;;;;;;;6.85;4.10;;;;;;;;;;6152772;28;20554;-69
2021/09/09 12:36:43;;;;;;;4.95;4.45;;;;;;;;;;6152524;28;20185;-69
2021/09/09 12:39:45;;;;;;;5.00;4.50;;;;;;;;;;6157004;28;20129;-69
2021/09/09 12:42:47;;;;;;;5.25;4.47;;;;;;;;;;6154581;28;20122;-69
2021/09/09 12:45:48;;;;;;;6.63;5.18;;;;;;;;;;6153683;28;20425;-68
2021/09/09 12:49:02;;;;;;;8.98;4.63;;;;;;;;;;6158600;28;20053;-69
2021/09/09 12:52:11;;;;;;;6.25;4.65;;;;;;;;;;6153550;28;20058;-68
2021/09/09 12:55:13;;;;;;;5.88;4.28;;;;;;;;;;6158403;28;20117;-69
2021/09/09 12:58:14;;;;;;;;;;;;;;;;;;6155730;28;20101;-68
2021/09/09 13:01:16;;;;;;;5.55;4.60;;;;;;;;;;6149091;28;20382;-68
2021/09/09 13:04:18;;;;;;;7.45;4.60;;;;;;;;;;6161896;28;20455;-69
2021/09/09 13:07:21;;;;;;;6.40;4.90;;;;;;;;;;6147722;28;20053;-69
2021/09/09 13:10:22;;;;;;;8.35;4.93;;;;;;;;;;6153493;28;20049;-72
2021/09/09 13:13:24;;;;;;;5.70;4.80;;;;;;;;;;6166094;28;20146;-69
2021/09/09 13:16:26;;;;;;;8.55;5.00;;;;;;;;;;6154326;28;20185;-68
2021/09/09 13:19:27;;;;;;;;;;;;;;;;;;6157146;28;20130;-69
2021/09/09 13:22:30;;;;;;;6.70;4.80;;;;;;;;;;6154334;28;19926;-68
2021/09/09 13:25:32;;;;;;;6.55;4.90;;;;;;;;;;6153373;28;20936;-71
2021/09/09 13:28:33;;;;;;;10.63;4.80;;;;;;;;;;6174346;28;20103;-69
2021/09/09 13:31:40;;;;;;;6.72;4.90;;;;;;;;;;6158717;28;20083;-69
2021/09/09 13:34:41;;;;;;;7.03;4.93;;;;;;;;;;6166407;28;20051;-69
2021/09/09 13:37:44;;;;;;;6.05;4.80;;;;;;;;;;6159079;28;20118;-68
2021/09/09 13:40:46;;;;;;;11.55;5.18;;;;;;;;;;6158568;28;20493;-69
2021/09/09 13:43:47;;;;;;;5.85;4.80;;;;;;;;;;6164856;28;20046;-68
2021/09/09 13:46:51;;;;;;;8.10;4.90;;;;;;;;;;6156947;28;20051;-68
2021/09/09 13:49:52;;;;;;;8.02;5.13;;;;;;;;;;6156666;28;20838;-69
2021/09/09 13:52:55;;;;;;;6.85;5.25;;;;;;;;;;6151452;28;20059;-69
2021/09/09 13:55:57;;;;;;;7.47;4.70;;;;;;;;;;6161392;28;20112;-69
2021/09/09 13:58:59;;;;;;;6.03;5.07;;;;;;;;;;6171293;28;20042;-69
2021/09/09 14:02:00;;;;;;;11.57;5.20;;;;;;;;;;6155853;28;20452;-69
2021/09/09 14:05:02;;;;;;;9.25;4.95;;;;;;;;;;6160106;28;20051;-69
2021/09/09 14:08:05;;;;;;;6.55;4.70;;;;;;;;;;6149700;28;20145;-69
2021/09/09 14:11:07;;;;;;;7.20;4.85;;;;;;;;;;6152842;28;20142;-70
2021/09/09 14:14:09;;;;;;;7.22;5.05;;;;;;;;;;6163208;28;20054;-70
2021/09/09 14:17:12;;;;;;;8.73;4.97;;;;;;;;;;6154566;28;20051;-69
2021/09/09 14:20:14;;;;;;;7.20;5.18;;;;;;;;;;6161959;28;20467;-71
2021/09/09 14:23:17;;;;;;;7.70;5.20;;;;;;;;;;6158826;28;20170;-69
2021/09/09 14:26:19;;;;;;;7.72;5.03;;;;;;;;;;6155928;28;20049;-69
2021/09/09 14:29:20;;;;;;;7.20;5.35;;;;;;;;;;6161159;28;20126;-70
2021/09/09 14:32:22;;;;;;;;;;;;;;;;;;6142429;28;20050;-69
2021/09/09 14:35:23;;;;;;;10.05;5.93;;;;;;;;;;6158268;28;19961;-71
2021/09/09 14:38:26;;;;;;;;;;;;;;;;;;6165461;28;20189;-69
2021/09/09 14:41:27;;;;;;;6.90;4.97;;;;;;;;;;6149241;28;19928;-70
2021/09/09 14:44:29;;;;;;;7.95;5.63;;;;;;;;;;6171292;28;20129;-69
2021/09/09 14:47:30;;;;;;;;;;;;;;;;;;6140107;28;20047;-69
2021/09/09 14:50:32;;;;;;;11.02;5.22;;;;;;;;;;6145882;28;20357;-70
2021/09/09 14:53:35;;;;;;;;;;;;;;;;;;6162503;28;20399;-70
2021/09/09 14:56:36;;;;;;;8.65;4.95;;;;;;;;;;6150855;28;19997;-71
2021/09/09 14:59:38;;;;;;;;;;;;;;;;;;6157134;28;20043;-70
2021/09/09 15:02:39;;;;;;;8.18;5.30;;;;;;;;;;6142432;28;19926;-70
2021/09/09 15:05:43;;;;;;;;;;;;;;;;;;6151116;28;20150;-69
2021/09/09 15:08:46;;;;;;;7.75;5.38;;;;;;;;;;6159813;28;19922;-70
2021/09/09 15:11:48;;;;;;;9.05;5.40;;;;;;;;;;6153588;28;20051;-69
2021/09/09 15:14:49;;;;;;;6.32;4.80;;;;;;;;;;6159970;28;20160;-70
2021/09/09 15:17:51;;;;;;;8.70;5.10;;;;;;;;;;6141281;28;20061;-69
2021/09/09 15:20:52;;;;;;;9.82;5.25;;;;;;;;;;6152786;28;20108;-68
2021/09/09 15:23:56;;;;;;;10.63;5.75;;;;;;;;;;6155673;28;20054;-70
2021/09/09 15:26:57;;;;;;;6.50;5.50;;;;;;;;;;6153464;28;20120;-70
2021/09/09 15:29:59;;;;;;;6.18;5.53;;;;;;;;;;6157200;28;20277;-70
2021/09/09 15:33:00;;;;;;;12.68;5.28;;;;;;;;;;6149231;28;20130;-70
2021/09/09 15:36:02;;;;;;;7.57;5.50;;;;;;;;;;6152789;28;20129;-70
2021/09/09 15:39:05;;;;;;;8.88;5.38;;;;;;;;;;6144831;28;20051;-70
2021/09/09 15:42:08;;;;;;;15.80;5.70;;;;;;;;;;6149435;28;20074;-69
2021/09/09 15:45:11;;;;;;;14.00;5.88;;;;;;;;;;6124780;28;20171;-71
2021/09/09 15:48:13;;;;;;;10.90;5.40;;;;;;;;;;6146635;28;20174;-70
2021/09/09 15:51:16;;;;;;;15.68;5.85;;;;;;;;;;6138356;28;20094;-70
2021/09/09 15:54:19;;;;;;;8.52;5.60;;;;;;;;;;6157571;28;20051;-70
2021/09/09 15:57:21;;;;;;;11.93;5.50;;;;;;;;;;6146525;28;20043;-69
2021/09/09 16:00:22;;;;;;;7.55;5.40;;;;;;;;;;6156875;28;20146;-70
2021/09/09 16:03:24;;;;;;;7.93;5.43;;;;;;;;;;6154634;28;20194;-70
2021/09/09 16:06:26;;;;;;;8.75;6.35;;;;;;;;;;6158174;28;20097;-69
2021/09/09 16:09:29;;;;;;;23.77;5.93;;;;;;;;;;6163404;28;20442;-69
2021/09/09 16:12:30;;;;;;;12.00;5.97;;;;;;;;;;6147544;28;20062;-70
2021/09/09 16:15:32;;;;;;;19.10;6.03;;;;;;;;;;6154626;28;20086;-71
2021/09/09 16:18:34;;;;;;;25.03;6.73;;;;;;;;;;6153941;28;20141;-67
2021/09/09 16:21:36;;;;;;;7.05;5.65;;;;;;;;;;6139257;28;20800;-67
2021/09/09 16:24:39;;;;;;;10.43;5.80;;;;;;;;;;6156030;28;20595;-68
2021/09/09 16:27:40;;;;;;;15.65;6.20;;;;;;;;;;6141852;28;20498;-68
2021/09/09 16:30:44;;;;;;;11.57;6.28;;;;;;;;;;6137944;28;20142;-68
2021/09/09 16:33:46;;;;;;;11.98;6.43;;;;;;;;;;6144755;28;20161;-67
2021/09/09 16:36:48;;;;;;;10.32;5.47;;;;;;;;;;6143231;28;20181;-68
2021/09/09 16:39:51;;;;;;;10.35;5.82;;;;;;;;;;6146714;28;20216;-68
2021/09/09 16:42:53;;;;;;;7.45;5.45;;;;;;;;;;6148019;28;20775;-68
2021/09/09 16:45:55;;;;;;;8.85;6.50;;;;;;;;;;6148548;28;20161;-68
2021/09/09 16:48:59;;;;;;;9.43;5.93;;;;;;;;;;6153372;28;20134;-67
2021/09/09 16:52:01;;;;;;;9.73;5.53;;;;;;;;;;6147390;28;20481;-67
2021/09/09 16:55:04;;;;;;;14.23;5.80;;;;;;;;;;6149861;28;20191;-68
2021/09/09 16:58:06;;;;;;;10.52;5.80;;;;;;;;;;6157553;28;21029;-67
2021/09/09 17:01:08;;;;;;;9.60;6.10;;;;;;;;;;6147101;28;20055;-68
2021/09/09 17:04:09;;;;;;;8.93;6.38;;;;;;;;;;6154337;28;20057;-68
2021/09/09 17:07:13;;;;;;;8.68;5.53;;;;;;;;;;6151386;28;20195;-68
2021/09/09 17:10:18;;;;;;;11.77;6.10;;;;;;;;;;6160118;28;20066;-68
2021/09/09 17:13:20;;;;;;;16.25;5.70;;;;;;;;;;6149393;28;20663;-68
2021/09/09 17:16:22;;;;;;;7.60;6.07;;;;;;;;;;6132748;28;20149;-67
2021/09/09 17:19:23;;;;;;;13.03;6.23;;;;;;;;;;6163649;28;20057;-68
2021/09/09 17:22:25;;;;;;;8.38;6.00;;;;;;;;;;6151613;28;20039;-73
2021/09/09 17:25:28;;;;;;;7.88;5.88;;;;;;;;;;6161265;28;20148;-68
2021/09/09 17:28:30;;;;;;;12.02;6.00;;;;;;;;;;6166446;28;20057;-68
2021/09/09 17:31:32;;;;;;;11.23;6.38;;;;;;;;;;6152446;28;20100;-70
2021/09/09 17:34:34;;;;;;;12.80;6.43;;;;;;;;;;6161272;28;20193;-68
2021/09/09 17:37:35;;;;;;;8.35;6.43;;;;;;;;;;6157844;28;20054;-69
2021/09/09 17:40:38;;;;;;;10.60;5.68;;;;;;;;;;6158291;28;20557;-68
2021/09/09 17:43:40;;;;;;;;;;;;;;;;;;6162657;28;20050;-69
2021/09/09 17:46:43;;;;;;;15.55;5.88;;;;;;;;;;6148149;28;20255;-68
2021/09/09 17:49:45;;;;;;;13.82;6.85;;;;;;;;;;6157958;28;20055;-69
2021/09/09 17:52:47;;;;;;;9.98;6.78;;;;;;;;;;6153204;28;20522;-71
2021/09/09 17:55:50;;;;;;;9.65;6.43;;;;;;;;;;6150676;28;20054;-70
2021/09/09 17:58:51;;;;;;;11.85;6.78;;;;;;;;;;6164259;28;20050;-68
2021/09/09 18:01:53;;;;;;;10.15;6.40;;;;;;;;;;6145697;28;20151;-69
2021/09/09 18:04:55;;;;;;;12.48;6.63;;;;;;;;;;6165147;28;20047;-68
2021/09/09 18:07:56;;;;;;;11.30;6.53;;;;;;;;;;6149532;28;20504;-67
2021/09/09 18:10:59;;;;;;;9.38;6.10;;;;;;;;;;6158760;28;20149;-67